sensor_id;sensor_type;location;lat;lon;timestamp;P1;durP1;ratioP1;P2;durP2;ratioP2
7057;SDS011;3570;43.080;25.628;2022-09-01T00:00:07;9.57;;;6.87;;
7057;SDS011;3570;43.080;25.628;2022-09-01T00:02:56;7.77;;;5.93;;
7057;SDS011;3570;43.080;25.628;2022-09-01T00:05:40;9.07;;;6.30;;
7057;SDS011;3570;43.080;25.628;2022-09-01T00:08:25;8.23;;;5.90;;
7057;SDS011;3570;43.080;25.628;2022-09-01T00:11:08;6.40;;;5.40;;
7057;SDS011;3570;43.080;25.628;2022-09-01T00:13:53;9.77;;;6.73;;
7057;SDS011;3570;43.080;25.628;2022-09-01T00:16:38;9.13;;;6.90;;
7057;SDS011;3570;43.080;25.628;2022-09-01T00:19:23;11.23;;;6.93;;
7057;SDS011;3570;43.080;25.628;2022-09-01T00:22:07;11.20;;;7.00;;
7057;SDS011;3570;43.080;25.628;2022-09-01T00:24:51;8.33;;;6.90;;
7057;SDS011;3570;43.080;25.628;2022-09-01T00:27:36;8.63;;;7.10;;
7057;SDS011;3570;43.080;25.628;2022-09-01T00:30:20;9.70;;;7.67;;
7057;SDS011;3570;43.080;25.628;2022-09-01T00:33:04;8.10;;;6.60;;
7057;SDS011;3570;43.080;25.628;2022-09-01T00:35:48;11.13;;;7.70;;
7057;SDS011;3570;43.080;25.628;2022-09-01T00:38:32;9.47;;;7.43;;
7057;SDS011;3570;43.080;25.628;2022-09-01T00:41:18;10.07;;;7.40;;
7057;SDS011;3570;43.080;25.628;2022-09-01T00:44:08;7.23;;;6.27;;
7057;SDS011;3570;43.080;25.628;2022-09-01T00:46:56;7.90;;;6.33;;
7057;SDS011;3570;43.080;25.628;2022-09-01T00:49:41;7.43;;;5.50;;
7057;SDS011;3570;43.080;25.628;2022-09-01T00:52:29;7.33;;;5.83;;
7057;SDS011;3570;43.080;25.628;2022-09-01T00:55:21;8.17;;;5.77;;
7057;SDS011;3570;43.080;25.628;2022-09-01T00:58:09;8.43;;;6.07;;
7057;SDS011;3570;43.080;25.628;2022-09-01T01:00:53;9.90;;;6.60;;
7057;SDS011;3570;43.080;25.628;2022-09-01T01:03:38;9.00;;;6.60;;
7057;SDS011;3570;43.080;25.628;2022-09-01T01:06:25;7.83;;;6.07;;
7057;SDS011;3570;43.080;25.628;2022-09-01T01:09:12;7.40;;;5.70;;
7057;SDS011;3570;43.080;25.628;2022-09-01T01:11:57;7.20;;;5.83;;
7057;SDS011;3570;43.080;25.628;2022-09-01T01:14:44;6.53;;;5.60;;
7057;SDS011;3570;43.080;25.628;2022-09-01T01:17:32;8.50;;;5.87;;
7057;SDS011;3570;43.080;25.628;2022-09-01T01:20:17;8.00;;;6.23;;
7057;SDS011;3570;43.080;25.628;2022-09-01T01:26:19;10.03;;;6.43;;
7057;SDS011;3570;43.080;25.628;2022-09-01T01:29:04;8.33;;;6.00;;
7057;SDS011;3570;43.080;25.628;2022-09-01T01:31:52;7.80;;;5.20;;
7057;SDS011;3570;43.080;25.628;2022-09-01T01:34:36;5.90;;;5.30;;
7057;SDS011;3570;43.080;25.628;2022-09-01T01:37:23;6.73;;;5.37;;
7057;SDS011;3570;43.080;25.628;2022-09-01T01:40:08;6.70;;;5.73;;
7057;SDS011;3570;43.080;25.628;2022-09-01T01:42:58;7.60;;;5.40;;
7057;SDS011;3570;43.080;25.628;2022-09-01T01:45:43;7.57;;;5.93;;
7057;SDS011;3570;43.080;25.628;2022-09-01T01:48:28;7.07;;;5.70;;
7057;SDS011;3570;43.080;25.628;2022-09-01T01:51:19;6.53;;;5.43;;
7057;SDS011;3570;43.080;25.628;2022-09-01T01:54:07;6.23;;;5.50;;
7057;SDS011;3570;43.080;25.628;2022-09-01T01:56:51;6.67;;;5.13;;
7057;SDS011;3570;43.080;25.628;2022-09-01T01:59:36;9.30;;;5.97;;
7057;SDS011;3570;43.080;25.628;2022-09-01T02:02:23;10.03;;;6.00;;
7057;SDS011;3570;43.080;25.628;2022-09-01T02:05:07;6.77;;;6.07;;
7057;SDS011;3570;43.080;25.628;2022-09-01T02:07:56;7.17;;;5.43;;
7057;SDS011;3570;43.080;25.628;2022-09-01T02:10:43;6.10;;;5.50;;
7057;SDS011;3570;43.080;25.628;2022-09-01T02:13:28;8.20;;;5.77;;
7057;SDS011;3570;43.080;25.628;2022-09-01T02:16:15;8.10;;;5.33;;
7057;SDS011;3570;43.080;25.628;2022-09-01T02:19:00;10.90;;;5.97;;
7057;SDS011;3570;43.080;25.628;2022-09-01T02:21:45;9.30;;;5.77;;
7057;SDS011;3570;43.080;25.628;2022-09-01T02:24:31;8.67;;;5.70;;
7057;SDS011;3570;43.080;25.628;2022-09-01T02:27:15;6.53;;;5.53;;
7057;SDS011;3570;43.080;25.628;2022-09-01T02:30:06;7.87;;;5.70;;
7057;SDS011;3570;43.080;25.628;2022-09-01T02:32:53;5.43;;;4.80;;
7057;SDS011;3570;43.080;25.628;2022-09-01T02:35:37;6.13;;;4.90;;
7057;SDS011;3570;43.080;25.628;2022-09-01T02:38:21;6.20;;;5.43;;
7057;SDS011;3570;43.080;25.628;2022-09-01T02:41:08;5.97;;;5.37;;
7057;SDS011;3570;43.080;25.628;2022-09-01T02:43:53;7.90;;;5.67;;
7057;SDS011;3570;43.080;25.628;2022-09-01T02:46:38;9.10;;;5.77;;
7057;SDS011;3570;43.080;25.628;2022-09-01T02:49:27;6.77;;;5.70;;
7057;SDS011;3570;43.080;25.628;2022-09-01T02:52:12;8.70;;;6.20;;
7057;SDS011;3570;43.080;25.628;2022-09-01T02:54:58;11.43;;;5.90;;
7057;SDS011;3570;43.080;25.628;2022-09-01T02:57:42;7.73;;;5.43;;
7057;SDS011;3570;43.080;25.628;2022-09-01T03:00:28;6.87;;;5.77;;
7057;SDS011;3570;43.080;25.628;2022-09-01T03:03:16;10.83;;;6.40;;
7057;SDS011;3570;43.080;25.628;2022-09-01T03:06:00;6.07;;;5.43;;
7057;SDS011;3570;43.080;25.628;2022-09-01T03:08:44;11.70;;;6.33;;
7057;SDS011;3570;43.080;25.628;2022-09-01T03:11:30;7.17;;;6.10;;
7057;SDS011;3570;43.080;25.628;2022-09-01T03:14:16;9.40;;;6.00;;
7057;SDS011;3570;43.080;25.628;2022-09-01T03:17:01;8.77;;;5.80;;
7057;SDS011;3570;43.080;25.628;2022-09-01T03:19:46;6.63;;;5.33;;
7057;SDS011;3570;43.080;25.628;2022-09-01T03:22:31;5.53;;;4.90;;
7057;SDS011;3570;43.080;25.628;2022-09-01T03:25:16;8.90;;;5.80;;
7057;SDS011;3570;43.080;25.628;2022-09-01T03:28:02;7.30;;;5.50;;
7057;SDS011;3570;43.080;25.628;2022-09-01T03:30:51;8.07;;;5.43;;
7057;SDS011;3570;43.080;25.628;2022-09-01T03:33:37;6.63;;;5.03;;
7057;SDS011;3570;43.080;25.628;2022-09-01T03:36:24;7.03;;;5.13;;
7057;SDS011;3570;43.080;25.628;2022-09-01T03:39:10;9.17;;;5.40;;
7057;SDS011;3570;43.080;25.628;2022-09-01T03:41:54;6.93;;;5.83;;
7057;SDS011;3570;43.080;25.628;2022-09-01T03:44:40;10.40;;;5.97;;
7057;SDS011;3570;43.080;25.628;2022-09-01T03:47:26;5.63;;;4.97;;
7057;SDS011;3570;43.080;25.628;2022-09-01T03:50:14;7.30;;;5.63;;
7057;SDS011;3570;43.080;25.628;2022-09-01T03:53:03;6.43;;;5.53;;
7057;SDS011;3570;43.080;25.628;2022-09-01T03:55:48;7.60;;;5.40;;
7057;SDS011;3570;43.080;25.628;2022-09-01T03:58:32;8.40;;;5.07;;
7057;SDS011;3570;43.080;25.628;2022-09-01T04:01:16;6.37;;;5.60;;
7057;SDS011;3570;43.080;25.628;2022-09-01T04:04:02;6.87;;;4.87;;
7057;SDS011;3570;43.080;25.628;2022-09-01T04:06:50;6.53;;;5.10;;
7057;SDS011;3570;43.080;25.628;2022-09-01T04:09:34;6.70;;;5.70;;
7057;SDS011;3570;43.080;25.628;2022-09-01T04:12:19;6.70;;;5.23;;
7057;SDS011;3570;43.080;25.628;2022-09-01T04:15:03;5.67;;;4.73;;
7057;SDS011;3570;43.080;25.628;2022-09-01T04:17:48;7.03;;;5.30;;
7057;SDS011;3570;43.080;25.628;2022-09-01T04:20:53;9.60;;;6.20;;
7057;SDS011;3570;43.080;25.628;2022-09-01T04:23:39;6.67;;;5.10;;
7057;SDS011;3570;43.080;25.628;2022-09-01T04:26:23;7.17;;;5.70;;
7057;SDS011;3570;43.080;25.628;2022-09-01T04:29:12;6.43;;;5.37;;
7057;SDS011;3570;43.080;25.628;2022-09-01T04:32:01;10.27;;;6.20;;
7057;SDS011;3570;43.080;25.628;2022-09-01T04:34:48;9.07;;;5.47;;
7057;SDS011;3570;43.080;25.628;2022-09-01T04:37:33;7.73;;;5.23;;
7057;SDS011;3570;43.080;25.628;2022-09-01T04:40:19;6.90;;;6.03;;
7057;SDS011;3570;43.080;25.628;2022-09-01T04:43:06;7.97;;;6.00;;
7057;SDS011;3570;43.080;25.628;2022-09-01T04:45:51;6.90;;;6.03;;
7057;SDS011;3570;43.080;25.628;2022-09-01T04:48:36;7.93;;;6.07;;
7057;SDS011;3570;43.080;25.628;2022-09-01T04:51:20;8.10;;;6.50;;
7057;SDS011;3570;43.080;25.628;2022-09-01T04:54:07;7.80;;;6.40;;
7057;SDS011;3570;43.080;25.628;2022-09-01T04:56:54;7.70;;;6.70;;
7057;SDS011;3570;43.080;25.628;2022-09-01T04:59:38;6.80;;;6.10;;
7057;SDS011;3570;43.080;25.628;2022-09-01T05:02:23;8.97;;;6.67;;
7057;SDS011;3570;43.080;25.628;2022-09-01T05:05:09;7.07;;;6.30;;
7057;SDS011;3570;43.080;25.628;2022-09-01T05:07:55;7.97;;;6.40;;
7057;SDS011;3570;43.080;25.628;2022-09-01T05:10:41;7.27;;;6.30;;
7057;SDS011;3570;43.080;25.628;2022-09-01T05:13:27;13.97;;;7.53;;
7057;SDS011;3570;43.080;25.628;2022-09-01T05:16:13;8.17;;;6.97;;
7057;SDS011;3570;43.080;25.628;2022-09-01T05:19:01;10.33;;;7.77;;
7057;SDS011;3570;43.080;25.628;2022-09-01T05:21:46;9.90;;;7.27;;
7057;SDS011;3570;43.080;25.628;2022-09-01T05:24:31;11.67;;;7.40;;
7057;SDS011;3570;43.080;25.628;2022-09-01T05:27:17;9.00;;;7.00;;
7057;SDS011;3570;43.080;25.628;2022-09-01T05:30:03;11.33;;;7.23;;
7057;SDS011;3570;43.080;25.628;2022-09-01T05:32:51;8.27;;;6.73;;
7057;SDS011;3570;43.080;25.628;2022-09-01T05:35:38;6.93;;;6.00;;
7057;SDS011;3570;43.080;25.628;2022-09-01T05:38:26;8.03;;;6.20;;
7057;SDS011;3570;43.080;25.628;2022-09-01T05:41:11;10.13;;;7.30;;
7057;SDS011;3570;43.080;25.628;2022-09-01T05:44:00;7.57;;;6.23;;
7057;SDS011;3570;43.080;25.628;2022-09-01T05:46:50;8.97;;;5.93;;
7057;SDS011;3570;43.080;25.628;2022-09-01T05:49:35;10.03;;;6.87;;
7057;SDS011;3570;43.080;25.628;2022-09-01T05:52:22;8.73;;;6.37;;
7057;SDS011;3570;43.080;25.628;2022-09-01T05:55:09;9.17;;;6.37;;
7057;SDS011;3570;43.080;25.628;2022-09-01T05:57:53;8.30;;;6.50;;
7057;SDS011;3570;43.080;25.628;2022-09-01T06:00:44;6.53;;;5.80;;
7057;SDS011;3570;43.080;25.628;2022-09-01T06:03:32;9.30;;;5.90;;
7057;SDS011;3570;43.080;25.628;2022-09-01T06:06:17;9.27;;;6.10;;
7057;SDS011;3570;43.080;25.628;2022-09-01T06:09:00;6.60;;;6.00;;
7057;SDS011;3570;43.080;25.628;2022-09-01T06:11:45;8.53;;;6.40;;
7057;SDS011;3570;43.080;25.628;2022-09-01T06:14:29;8.03;;;6.47;;
7057;SDS011;3570;43.080;25.628;2022-09-01T06:17:13;7.00;;;6.27;;
7057;SDS011;3570;43.080;25.628;2022-09-01T06:19:59;8.17;;;6.13;;
7057;SDS011;3570;43.080;25.628;2022-09-01T06:22:43;8.07;;;5.97;;
7057;SDS011;3570;43.080;25.628;2022-09-01T06:25:28;9.93;;;6.03;;
7057;SDS011;3570;43.080;25.628;2022-09-01T06:28:13;9.47;;;6.57;;
7057;SDS011;3570;43.080;25.628;2022-09-01T06:30:59;6.43;;;5.03;;
7057;SDS011;3570;43.080;25.628;2022-09-01T06:33:50;7.70;;;5.53;;
7057;SDS011;3570;43.080;25.628;2022-09-01T06:36:38;9.03;;;6.13;;
7057;SDS011;3570;43.080;25.628;2022-09-01T06:39:23;9.27;;;6.37;;
7057;SDS011;3570;43.080;25.628;2022-09-01T06:42:08;7.07;;;6.23;;
7057;SDS011;3570;43.080;25.628;2022-09-01T06:44:56;7.77;;;5.90;;
7057;SDS011;3570;43.080;25.628;2022-09-01T06:47:41;8.50;;;6.07;;
7057;SDS011;3570;43.080;25.628;2022-09-01T06:50:29;9.53;;;5.70;;
7057;SDS011;3570;43.080;25.628;2022-09-01T06:53:13;10.17;;;5.53;;
7057;SDS011;3570;43.080;25.628;2022-09-01T06:56:01;8.37;;;5.87;;
7057;SDS011;3570;43.080;25.628;2022-09-01T06:58:45;7.77;;;5.50;;
7057;SDS011;3570;43.080;25.628;2022-09-01T07:01:31;6.77;;;5.77;;
7057;SDS011;3570;43.080;25.628;2022-09-01T07:04:16;5.90;;;5.30;;
7057;SDS011;3570;43.080;25.628;2022-09-01T07:07:02;6.93;;;5.77;;
7057;SDS011;3570;43.080;25.628;2022-09-01T07:09:48;9.23;;;5.50;;
7057;SDS011;3570;43.080;25.628;2022-09-01T07:12:32;9.03;;;5.70;;
7057;SDS011;3570;43.080;25.628;2022-09-01T07:15:17;8.53;;;5.93;;
7057;SDS011;3570;43.080;25.628;2022-09-01T07:18:02;7.53;;;5.87;;
7057;SDS011;3570;43.080;25.628;2022-09-01T07:20:47;8.80;;;5.83;;
7057;SDS011;3570;43.080;25.628;2022-09-01T07:23:31;6.90;;;5.30;;
7057;SDS011;3570;43.080;25.628;2022-09-01T07:26:15;9.30;;;5.70;;
7057;SDS011;3570;43.080;25.628;2022-09-01T07:29:03;9.43;;;6.17;;
7057;SDS011;3570;43.080;25.628;2022-09-01T07:31:48;14.80;;;5.93;;
7057;SDS011;3570;43.080;25.628;2022-09-01T07:34:33;8.17;;;6.00;;
7057;SDS011;3570;43.080;25.628;2022-09-01T07:37:18;8.33;;;5.90;;
7057;SDS011;3570;43.080;25.628;2022-09-01T07:40:13;9.57;;;6.30;;
7057;SDS011;3570;43.080;25.628;2022-09-01T07:43:01;8.87;;;5.87;;
7057;SDS011;3570;43.080;25.628;2022-09-01T07:45:49;8.47;;;5.77;;
7057;SDS011;3570;43.080;25.628;2022-09-01T07:48:34;7.97;;;5.90;;
7057;SDS011;3570;43.080;25.628;2022-09-01T07:51:20;8.30;;;6.90;;
7057;SDS011;3570;43.080;25.628;2022-09-01T07:54:05;6.67;;;6.00;;
7057;SDS011;3570;43.080;25.628;2022-09-01T07:56:49;8.13;;;5.80;;
7057;SDS011;3570;43.080;25.628;2022-09-01T07:59:33;6.43;;;5.77;;
7057;SDS011;3570;43.080;25.628;2022-09-01T08:02:18;7.17;;;6.07;;
7057;SDS011;3570;43.080;25.628;2022-09-01T08:05:02;9.67;;;5.73;;
7057;SDS011;3570;43.080;25.628;2022-09-01T08:07:47;7.53;;;6.43;;
7057;SDS011;3570;43.080;25.628;2022-09-01T08:10:32;9.73;;;6.77;;
7057;SDS011;3570;43.080;25.628;2022-09-01T08:13:17;7.40;;;5.80;;
7057;SDS011;3570;43.080;25.628;2022-09-01T08:16:03;10.30;;;6.80;;
7057;SDS011;3570;43.080;25.628;2022-09-01T08:18:47;8.65;;;7.28;;
7057;SDS011;3570;43.080;25.628;2022-09-01T08:21:31;8.77;;;6.00;;
7057;SDS011;3570;43.080;25.628;2022-09-01T08:24:16;7.95;;;6.28;;
7057;SDS011;3570;43.080;25.628;2022-09-01T08:27:02;7.30;;;6.60;;
7057;SDS011;3570;43.080;25.628;2022-09-01T08:29:47;9.68;;;6.88;;
7057;SDS011;3570;43.080;25.628;2022-09-01T08:32:32;8.85;;;6.50;;
7057;SDS011;3570;43.080;25.628;2022-09-01T08:35:17;11.45;;;6.38;;
7057;SDS011;3570;43.080;25.628;2022-09-01T08:38:02;8.57;;;6.80;;
7057;SDS011;3570;43.080;25.628;2022-09-01T08:40:50;7.63;;;6.22;;
7057;SDS011;3570;43.080;25.628;2022-09-01T08:47:00;9.13;;;5.85;;
7057;SDS011;3570;43.080;25.628;2022-09-01T08:49:50;7.25;;;5.50;;
7057;SDS011;3570;43.080;25.628;2022-09-01T08:52:36;7.20;;;5.65;;
7057;SDS011;3570;43.080;25.628;2022-09-01T08:55:33;7.03;;;6.32;;
7057;SDS011;3570;43.080;25.628;2022-09-01T08:58:21;8.20;;;5.90;;
7057;SDS011;3570;43.080;25.628;2022-09-01T09:01:11;9.35;;;6.35;;
7057;SDS011;3570;43.080;25.628;2022-09-01T09:04:17;7.97;;;5.85;;
7057;SDS011;3570;43.080;25.628;2022-09-01T09:13:00;6.63;;;5.50;;
7057;SDS011;3570;43.080;25.628;2022-09-01T09:16:07;6.72;;;5.97;;
7057;SDS011;3570;43.080;25.628;2022-09-01T09:18:56;7.72;;;5.53;;
7057;SDS011;3570;43.080;25.628;2022-09-01T09:21:47;6.45;;;4.97;;
7057;SDS011;3570;43.080;25.628;2022-09-01T09:24:35;7.55;;;5.25;;
7057;SDS011;3570;43.080;25.628;2022-09-01T09:27:38;5.85;;;5.20;;
7057;SDS011;3570;43.080;25.628;2022-09-01T09:30:25;6.45;;;5.03;;
7057;SDS011;3570;43.080;25.628;2022-09-01T09:33:31;5.28;;;4.75;;
7057;SDS011;3570;43.080;25.628;2022-09-01T09:36:19;6.38;;;5.15;;
7057;SDS011;3570;43.080;25.628;2022-09-01T09:39:10;6.00;;;4.95;;
7057;SDS011;3570;43.080;25.628;2022-09-01T09:42:01;5.22;;;4.72;;
7057;SDS011;3570;43.080;25.628;2022-09-01T09:44:51;7.03;;;4.75;;
7057;SDS011;3570;43.080;25.628;2022-09-01T09:47:39;6.45;;;5.18;;
7057;SDS011;3570;43.080;25.628;2022-09-01T09:50:27;6.63;;;5.20;;
7057;SDS011;3570;43.080;25.628;2022-09-01T09:53:14;5.53;;;4.35;;
7057;SDS011;3570;43.080;25.628;2022-09-01T09:56:02;6.65;;;5.07;;
7057;SDS011;3570;43.080;25.628;2022-09-01T09:59:00;4.45;;;4.03;;
7057;SDS011;3570;43.080;25.628;2022-09-01T10:02:15;4.68;;;4.18;;
7057;SDS011;3570;43.080;25.628;2022-09-01T10:05:28;9.07;;;6.82;;
7057;SDS011;3570;43.080;25.628;2022-09-01T10:11:10;6.47;;;4.60;;
7057;SDS011;3570;43.080;25.628;2022-09-01T10:14:15;6.95;;;4.60;;
7057;SDS011;3570;43.080;25.628;2022-09-01T10:17:05;7.13;;;4.60;;
7057;SDS011;3570;43.080;25.628;2022-09-01T10:20:02;5.80;;;5.25;;
7057;SDS011;3570;43.080;25.628;2022-09-01T10:22:51;5.35;;;4.85;;
7057;SDS011;3570;43.080;25.628;2022-09-01T10:25:36;6.30;;;4.50;;
7057;SDS011;3570;43.080;25.628;2022-09-01T10:28:23;6.07;;;4.38;;
7057;SDS011;3570;43.080;25.628;2022-09-01T10:31:07;4.85;;;4.28;;
7057;SDS011;3570;43.080;25.628;2022-09-01T10:33:53;4.22;;;3.83;;
7057;SDS011;3570;43.080;25.628;2022-09-01T10:36:38;5.00;;;4.13;;
7057;SDS011;3570;43.080;25.628;2022-09-01T10:39:25;4.05;;;3.60;;
7057;SDS011;3570;43.080;25.628;2022-09-01T10:42:15;5.38;;;4.13;;
7057;SDS011;3570;43.080;25.628;2022-09-01T10:45:00;5.43;;;3.88;;
7057;SDS011;3570;43.080;25.628;2022-09-01T10:47:45;4.90;;;4.20;;
7057;SDS011;3570;43.080;25.628;2022-09-01T10:50:30;5.88;;;4.45;;
7057;SDS011;3570;43.080;25.628;2022-09-01T10:53:37;4.78;;;3.97;;
7057;SDS011;3570;43.080;25.628;2022-09-01T11:07:34;4.90;;;3.80;;
7057;SDS011;3570;43.080;25.628;2022-09-01T11:10:27;3.88;;;3.40;;
7057;SDS011;3570;43.080;25.628;2022-09-01T11:25:08;5.22;;;4.57;;
7057;SDS011;3570;43.080;25.628;2022-09-01T11:27:58;5.05;;;4.28;;
7057;SDS011;3570;43.080;25.628;2022-09-01T11:30:59;6.00;;;4.88;;
7057;SDS011;3570;43.080;25.628;2022-09-01T11:36:55;5.18;;;4.30;;
7057;SDS011;3570;43.080;25.628;2022-09-01T11:39:45;6.57;;;4.40;;
7057;SDS011;3570;43.080;25.628;2022-09-01T11:42:36;7.60;;;3.92;;
7057;SDS011;3570;43.080;25.628;2022-09-01T11:45:25;6.43;;;3.88;;
7057;SDS011;3570;43.080;25.628;2022-09-01T11:48:16;5.15;;;3.50;;
7057;SDS011;3570;43.080;25.628;2022-09-01T11:51:01;5.40;;;4.30;;
7057;SDS011;3570;43.080;25.628;2022-09-01T11:53:46;3.80;;;3.50;;
7057;SDS011;3570;43.080;25.628;2022-09-01T11:56:33;3.58;;;3.13;;
7057;SDS011;3570;43.080;25.628;2022-09-01T11:59:30;4.50;;;3.33;;
7057;SDS011;3570;43.080;25.628;2022-09-01T12:02:23;5.13;;;2.72;;
7057;SDS011;3570;43.080;25.628;2022-09-01T12:05:27;3.35;;;2.97;;
7057;SDS011;3570;43.080;25.628;2022-09-01T12:08:15;6.45;;;3.42;;
7057;SDS011;3570;43.080;25.628;2022-09-01T12:11:02;5.57;;;3.72;;
7057;SDS011;3570;43.080;25.628;2022-09-01T12:13:54;3.40;;;3.10;;
7057;SDS011;3570;43.080;25.628;2022-09-01T12:16:55;3.83;;;3.33;;
7057;SDS011;3570;43.080;25.628;2022-09-01T12:19:41;3.85;;;3.28;;
7057;SDS011;3570;43.080;25.628;2022-09-01T12:22:26;4.53;;;3.10;;
7057;SDS011;3570;43.080;25.628;2022-09-01T12:25:21;5.20;;;3.90;;
7057;SDS011;3570;43.080;25.628;2022-09-01T12:28:08;5.50;;;3.38;;
7057;SDS011;3570;43.080;25.628;2022-09-01T12:30:53;5.72;;;3.70;;
7057;SDS011;3570;43.080;25.628;2022-09-01T12:33:38;4.70;;;3.40;;
7057;SDS011;3570;43.080;25.628;2022-09-01T12:36:31;3.60;;;3.20;;
7057;SDS011;3570;43.080;25.628;2022-09-01T12:39:22;4.18;;;3.22;;
7057;SDS011;3570;43.080;25.628;2022-09-01T12:42:10;5.20;;;3.47;;
7057;SDS011;3570;43.080;25.628;2022-09-01T12:48:33;4.25;;;2.80;;
7057;SDS011;3570;43.080;25.628;2022-09-01T12:51:19;3.22;;;2.85;;
7057;SDS011;3570;43.080;25.628;2022-09-01T12:54:07;5.32;;;4.10;;
7057;SDS011;3570;43.080;25.628;2022-09-01T12:56:52;5.57;;;3.80;;
7057;SDS011;3570;43.080;25.628;2022-09-01T12:59:36;5.72;;;3.60;;
7057;SDS011;3570;43.080;25.628;2022-09-01T13:02:28;3.53;;;3.22;;
7057;SDS011;3570;43.080;25.628;2022-09-01T13:05:32;6.00;;;3.80;;
7057;SDS011;3570;43.080;25.628;2022-09-01T13:08:24;4.18;;;3.78;;
7057;SDS011;3570;43.080;25.628;2022-09-01T13:11:13;4.93;;;3.88;;
7057;SDS011;3570;43.080;25.628;2022-09-01T13:14:00;5.05;;;3.50;;
7057;SDS011;3570;43.080;25.628;2022-09-01T13:16:44;5.93;;;4.15;;
7057;SDS011;3570;43.080;25.628;2022-09-01T13:19:29;4.95;;;4.55;;
7057;SDS011;3570;43.080;25.628;2022-09-01T13:22:13;6.53;;;3.92;;
7057;SDS011;3570;43.080;25.628;2022-09-01T13:24:56;4.18;;;3.53;;
7057;SDS011;3570;43.080;25.628;2022-09-01T13:27:41;4.47;;;3.75;;
7057;SDS011;3570;43.080;25.628;2022-09-01T13:30:27;7.85;;;4.63;;
7057;SDS011;3570;43.080;25.628;2022-09-01T13:33:12;5.77;;;4.20;;
7057;SDS011;3570;43.080;25.628;2022-09-01T13:35:57;7.90;;;3.97;;
7057;SDS011;3570;43.080;25.628;2022-09-01T13:38:41;6.03;;;4.67;;
7057;SDS011;3570;43.080;25.628;2022-09-01T13:41:25;5.70;;;4.33;;
7057;SDS011;3570;43.080;25.628;2022-09-01T13:44:09;7.27;;;4.40;;
7057;SDS011;3570;43.080;25.628;2022-09-01T13:46:54;5.23;;;3.50;;
7057;SDS011;3570;43.080;25.628;2022-09-01T13:49:38;9.00;;;5.00;;
7057;SDS011;3570;43.080;25.628;2022-09-01T13:52:22;10.90;;;4.13;;
7057;SDS011;3570;43.080;25.628;2022-09-01T13:55:07;5.87;;;4.03;;
7057;SDS011;3570;43.080;25.628;2022-09-01T13:57:55;3.17;;;2.87;;
7057;SDS011;3570;43.080;25.628;2022-09-01T14:00:45;8.03;;;4.43;;
7057;SDS011;3570;43.080;25.628;2022-09-01T14:03:29;10.53;;;5.60;;
7057;SDS011;3570;43.080;25.628;2022-09-01T14:06:15;10.47;;;5.93;;
7057;SDS011;3570;43.080;25.628;2022-09-01T14:08:59;11.03;;;6.87;;
7057;SDS011;3570;43.080;25.628;2022-09-01T14:11:43;10.13;;;6.83;;
7057;SDS011;3570;43.080;25.628;2022-09-01T14:14:27;16.20;;;7.23;;
7057;SDS011;3570;43.080;25.628;2022-09-01T14:17:11;7.37;;;6.03;;
7057;SDS011;3570;43.080;25.628;2022-09-01T14:19:55;10.23;;;6.30;;
7057;SDS011;3570;43.080;25.628;2022-09-01T14:22:40;11.33;;;7.37;;
7057;SDS011;3570;43.080;25.628;2022-09-01T14:25:24;12.60;;;7.07;;
7057;SDS011;3570;43.080;25.628;2022-09-01T14:28:08;10.57;;;7.10;;
7057;SDS011;3570;43.080;25.628;2022-09-01T14:30:53;8.43;;;6.23;;
7057;SDS011;3570;43.080;25.628;2022-09-01T14:33:37;6.67;;;5.03;;
7057;SDS011;3570;43.080;25.628;2022-09-01T14:36:24;7.43;;;5.87;;
7057;SDS011;3570;43.080;25.628;2022-09-01T14:39:09;9.77;;;6.50;;
7057;SDS011;3570;43.080;25.628;2022-09-01T14:41:53;8.93;;;6.50;;
7057;SDS011;3570;43.080;25.628;2022-09-01T14:44:37;8.37;;;6.93;;
7057;SDS011;3570;43.080;25.628;2022-09-01T14:47:22;10.63;;;6.40;;
7057;SDS011;3570;43.080;25.628;2022-09-01T14:50:08;9.00;;;6.57;;
7057;SDS011;3570;43.080;25.628;2022-09-01T14:52:53;9.33;;;6.50;;
7057;SDS011;3570;43.080;25.628;2022-09-01T14:55:38;9.97;;;7.27;;
7057;SDS011;3570;43.080;25.628;2022-09-01T14:58:23;9.47;;;7.53;;
7057;SDS011;3570;43.080;25.628;2022-09-01T15:01:08;8.80;;;7.17;;
7057;SDS011;3570;43.080;25.628;2022-09-01T15:03:53;7.80;;;6.80;;
7057;SDS011;3570;43.080;25.628;2022-09-01T15:06:37;11.80;;;6.90;;
7057;SDS011;3570;43.080;25.628;2022-09-01T15:09:21;9.57;;;6.73;;
7057;SDS011;3570;43.080;25.628;2022-09-01T15:12:06;6.67;;;5.87;;
7057;SDS011;3570;43.080;25.628;2022-09-01T15:14:52;12.30;;;6.77;;
7057;SDS011;3570;43.080;25.628;2022-09-01T15:17:36;11.23;;;7.17;;
7057;SDS011;3570;43.080;25.628;2022-09-01T15:20:20;11.60;;;7.17;;
7057;SDS011;3570;43.080;25.628;2022-09-01T15:23:24;7.27;;;6.00;;
7057;SDS011;3570;43.080;25.628;2022-09-01T15:26:09;8.00;;;5.80;;
7057;SDS011;3570;43.080;25.628;2022-09-01T15:28:53;7.20;;;5.77;;
7057;SDS011;3570;43.080;25.628;2022-09-01T15:31:40;9.03;;;5.73;;
7057;SDS011;3570;43.080;25.628;2022-09-01T15:34:26;9.17;;;5.80;;
7057;SDS011;3570;43.080;25.628;2022-09-01T15:37:10;7.17;;;5.23;;
7057;SDS011;3570;43.080;25.628;2022-09-01T15:39:54;7.80;;;5.77;;
7057;SDS011;3570;43.080;25.628;2022-09-01T15:42:38;9.63;;;5.70;;
7057;SDS011;3570;43.080;25.628;2022-09-01T15:45:23;6.23;;;5.63;;
7057;SDS011;3570;43.080;25.628;2022-09-01T15:48:07;8.00;;;6.23;;
7057;SDS011;3570;43.080;25.628;2022-09-01T15:50:51;11.83;;;6.63;;
7057;SDS011;3570;43.080;25.628;2022-09-01T15:53:36;8.70;;;6.67;;
7057;SDS011;3570;43.080;25.628;2022-09-01T15:56:20;10.93;;;6.80;;
7057;SDS011;3570;43.080;25.628;2022-09-01T15:59:05;8.43;;;6.30;;
7057;SDS011;3570;43.080;25.628;2022-09-01T16:01:50;10.10;;;7.03;;
7057;SDS011;3570;43.080;25.628;2022-09-01T16:04:35;10.97;;;6.63;;
7057;SDS011;3570;43.080;25.628;2022-09-01T16:07:19;9.17;;;6.50;;
7057;SDS011;3570;43.080;25.628;2022-09-01T16:10:04;10.77;;;6.70;;
7057;SDS011;3570;43.080;25.628;2022-09-01T16:12:53;8.27;;;6.67;;
7057;SDS011;3570;43.080;25.628;2022-09-01T16:15:40;9.23;;;7.30;;
7057;SDS011;3570;43.080;25.628;2022-09-01T16:18:36;11.30;;;7.73;;
7057;SDS011;3570;43.080;25.628;2022-09-01T16:24:35;13.60;;;7.90;;
7057;SDS011;3570;43.080;25.628;2022-09-01T16:27:31;9.27;;;7.10;;
7057;SDS011;3570;43.080;25.628;2022-09-01T16:30:18;11.47;;;6.37;;
7057;SDS011;3570;43.080;25.628;2022-09-01T16:33:05;9.53;;;6.83;;
7057;SDS011;3570;43.080;25.628;2022-09-01T16:36:23;11.73;;;6.73;;
7057;SDS011;3570;43.080;25.628;2022-09-01T16:45:03;10.53;;;6.40;;
7057;SDS011;3570;43.080;25.628;2022-09-01T17:08:44;10.33;;;6.20;;
7057;SDS011;3570;43.080;25.628;2022-09-01T17:11:41;10.30;;;6.30;;
7057;SDS011;3570;43.080;25.628;2022-09-01T17:14:37;7.30;;;6.07;;
7057;SDS011;3570;43.080;25.628;2022-09-01T17:17:31;9.20;;;6.47;;
7057;SDS011;3570;43.080;25.628;2022-09-01T17:20:21;8.50;;;6.80;;
7057;SDS011;3570;43.080;25.628;2022-09-01T17:23:11;10.07;;;6.53;;
7057;SDS011;3570;43.080;25.628;2022-09-01T17:26:04;9.97;;;7.50;;
7057;SDS011;3570;43.080;25.628;2022-09-01T17:28:59;10.20;;;6.37;;
7057;SDS011;3570;43.080;25.628;2022-09-01T17:53:10;8.63;;;5.80;;
7057;SDS011;3570;43.080;25.628;2022-09-01T17:56:08;8.73;;;6.77;;
7057;SDS011;3570;43.080;25.628;2022-09-01T18:02:33;11.03;;;6.93;;
7057;SDS011;3570;43.080;25.628;2022-09-01T18:05:33;9.07;;;6.33;;
7057;SDS011;3570;43.080;25.628;2022-09-01T18:08:27;9.93;;;6.63;;
7057;SDS011;3570;43.080;25.628;2022-09-01T18:11:16;9.07;;;7.30;;
7057;SDS011;3570;43.080;25.628;2022-09-01T18:14:24;11.33;;;7.50;;
7057;SDS011;3570;43.080;25.628;2022-09-01T18:20:22;12.80;;;8.10;;
7057;SDS011;3570;43.080;25.628;2022-09-01T18:23:11;12.50;;;7.90;;
7057;SDS011;3570;43.080;25.628;2022-09-01T18:26:20;8.97;;;7.40;;
7057;SDS011;3570;43.080;25.628;2022-09-01T18:29:12;9.47;;;7.17;;
7057;SDS011;3570;43.080;25.628;2022-09-01T18:35:37;8.63;;;7.00;;
7057;SDS011;3570;43.080;25.628;2022-09-01T18:38:10;13.27;;;7.10;;
7057;SDS011;3570;43.080;25.628;2022-09-01T18:41:01;10.67;;;7.47;;
7057;SDS011;3570;43.080;25.628;2022-09-01T18:44:38;8.90;;;6.70;;
7057;SDS011;3570;43.080;25.628;2022-09-01T18:47:29;8.00;;;7.03;;
7057;SDS011;3570;43.080;25.628;2022-09-01T18:50:21;9.23;;;7.83;;